Kalamazoo, MI

8:08 AM EST on February 21, 2017 (GMT -0500)
| | Change Station
Active Advisory: Small Craft Advisory

Elev -9999 ft 0.00 °N, 0.00 °E | Updated 12 minutes ago

Rain
Rain
°F
Feels Like °F
N
Wind Variable Wind from North
Gusts mph

Today
High -- | Low -- °F
--% Chance of Precip.
Yesterday
High -- | Low -- °F
Precip. -- in
Pressure 29.98 in
Visibility 9.0 miles
Clouds Scattered Clouds 4600 ft
Overcast 5500 ft
Dew Point Not available.
Humidity Not available.
Rainfall --
Snow Depth Not available.
7:29 AM 6:22 PM
Waning Crescent, 25% visible
METAR KAZO 211253Z 22006KT 9SM SCT046 OVC055 10/04 A2997 RMK AO2 SLP150 T01000044
Pressure 29.98 in
Visibility 9.0 miles
Clouds Scattered Clouds 4600 ft
Overcast 5500 ft
Dew Point Not available.
Humidity Not available.
Rainfall --
Snow Depth Not available.
7:29 AM 6:22 PM
Waning Crescent, 25% visible
METAR KAZO 211253Z 22006KT 9SM SCT046 OVC055 10/04 A2997 RMK AO2 SLP150 T01000044

Get Your Daily Forecast Email!

Thanks for signing up!

Be on the lookout for a verification email in your inbox.

You'll start receiving the daily forecast at 8 AM.

×

10-Day Weather Forecast

Almanac

Astronomy

Feb. 21, 2017 Rise Set
Actual Time
Civil Twilight
Nautical Twilight
Astronomical Twilight
Moon
Length of Visible Light
Length of Day
Tomorrow will be .
, % of the Moon is Illuminated

Today's Extremes

State Highs State Lows

Community

WunderPhotos

Upload Photos

1,962,540 photos uploaded!

WunderBlog® & News

Nearby

Air Quality

  Air Quality AQ Index Pollutant
Not available.

Snow Depth

Station Depth Elevation

Earthquake Activity

City Distance Mag. Time & Date
Minimum magnitude displayed is 2.5.

Coastal Water Temperatures

Place Temperature

Stations

Nearby Weather Stations

Station Location Temp. Windchill Dew Point Humidity Wind Precip. Elev Updated Type
                   

Watches & Warnings

Small Craft Advisory
Issued: 3:40 AM EST Feb. 21, 2017 – National Weather Service

... Small Craft Advisory remains in effect until 11 am EST this
morning...

* winds... south 15 to 25 knots diminishing and shifting to
the southwest.

* Waves... 3 to 5 feet subsiding this morning.

Precautionary/preparedness actions...

A Small Craft Advisory means that winds or waves are expected to
produce hazardous conditions to small craft. Inexperienced
mariners... especially those operating smaller vessels should
avoid navigating in these conditions.